createdAt,value
2023-01-20T00:03:55.536Z,76.19
2023-01-20T00:18:59.540Z,75.88
2023-01-20T00:34:04.496Z,76.52
2023-01-20T00:49:09.386Z,77.33
2023-01-20T01:04:14.888Z,77.39
2023-01-20T01:19:19.372Z,77.23
2023-01-20T01:34:23.560Z,77.29
2023-01-20T01:49:28.648Z,77.22
2023-01-20T02:04:34.252Z,76.71
2023-01-20T02:19:46.129Z,76.12
2023-01-20T02:34:51.634Z,75.53
2023-01-20T02:49:56.499Z,75.55
2023-01-20T03:05:08.379Z,75.86
2023-01-20T03:20:12.213Z,75.93
2023-01-20T03:35:17.176Z,75.89
2023-01-20T03:50:35.779Z,76.24
2023-01-20T04:05:41.281Z,76.58
2023-01-20T04:20:45.464Z,76.04
2023-01-20T04:35:49.986Z,75.86
2023-01-20T04:50:53.563Z,75.90
2023-01-20T05:05:58.488Z,75.52
2023-01-20T05:21:02.480Z,75.55
2023-01-20T05:36:06.876Z,75.87
2023-01-20T05:51:10.880Z,76.05
2023-01-20T06:06:15.997Z,76.26
2023-01-20T06:21:19.803Z,76.51
2023-01-20T06:36:24.630Z,76.20
2023-01-20T06:51:28.982Z,75.96
2023-01-20T07:06:35.276Z,75.82
2023-01-20T07:21:39.149Z,75.87
2023-01-20T07:36:44.466Z,76.06
2023-01-20T07:51:48.295Z,75.90
2023-01-20T08:06:52.473Z,76.56
2023-01-20T08:21:56.364Z,76.06
2023-01-20T08:37:00.576Z,75.94
2023-01-20T08:52:05.002Z,76.03
2023-01-20T09:07:11.016Z,75.94
2023-01-20T09:22:16.579Z,76.00
2023-01-20T09:37:40.217Z,75.79
2023-01-20T09:53:05.114Z,75.73
2023-01-20T10:08:29.487Z,75.93
2023-01-20T10:23:47.733Z,76.18
2023-01-20T10:39:10.941Z,76.44
2023-01-20T10:54:29.888Z,77.45
2023-01-20T11:09:35.389Z,78.11
2023-01-20T11:24:43.037Z,78.22
2023-01-20T11:39:51.271Z,78.55
2023-01-20T11:55:07.283Z,78.68
2023-01-20T12:10:18.144Z,78.58
2023-01-20T12:25:26.281Z,78.62
2023-01-20T12:40:31.510Z,79.36
2023-01-20T12:55:41.648Z,80.17
2023-01-20T13:10:51.107Z,80.25
2023-01-20T13:25:55.419Z,80.27
2023-01-20T13:41:03.677Z,80.59
2023-01-20T13:56:23.856Z,81.37
2023-01-20T14:11:29.804Z,81.53
2023-01-20T14:26:33.851Z,81.75
2023-01-20T14:41:47.139Z,82.36
2023-01-20T14:56:51.210Z,83.28
2023-01-20T15:12:14.339Z,83.77
2023-01-20T15:27:24.550Z,83.35
2023-01-20T15:42:28.802Z,83.16
2023-01-20T15:57:32.712Z,83.77
2023-01-20T16:12:37.459Z,84.25
2023-01-20T16:27:41.348Z,84.49
2023-01-20T16:42:45.853Z,84.70
2023-01-20T16:57:49.765Z,84.50
2023-01-20T17:12:54.687Z,84.57
2023-01-20T17:27:58.582Z,85.40
2023-01-20T17:43:05.359Z,85.77
2023-01-20T17:58:10.712Z,85.56
2023-01-20T18:13:15.898Z,85.92
2023-01-20T18:28:19.914Z,86.06
2023-01-20T18:43:25.133Z,86.19
2023-01-20T18:58:29.103Z,86.73
2023-01-20T19:13:34.513Z,87.08
2023-01-20T19:28:38.499Z,87.08
2023-01-20T19:43:42.741Z,87.56
2023-01-20T19:58:46.948Z,87.85
2023-01-20T20:13:53.898Z,88.11
2023-01-20T20:28:58.634Z,88.09
2023-01-20T20:44:03.689Z,88.06
2023-01-20T20:59:09.016Z,88.96
2023-01-20T21:14:13.629Z,89.65
2023-01-20T21:29:17.900Z,89.77
2023-01-20T21:44:29.426Z,90.09
2023-01-20T21:59:33.641Z,89.67
2023-01-20T22:14:39.238Z,89.42
2023-01-20T22:29:44.082Z,89.11
2023-01-20T22:44:49.631Z,90.04
2023-01-20T22:59:54.004Z,90.19
2023-01-20T23:15:01.350Z,90.17
2023-01-20T23:30:06.141Z,89.66
2023-01-20T23:45:12.830Z,89.66
